sensor_id;sensor_type;location;lat;lon;timestamp;P1;durP1;ratioP1;P2;durP2;ratioP2
16029;SDS011;34770;49.272;11.070;2023-06-01T00:01:59;5.97;;;3.58;;
16029;SDS011;34770;49.272;11.070;2023-06-01T00:04:25;3.90;;;3.08;;
16029;SDS011;34770;49.272;11.070;2023-06-01T00:06:50;5.32;;;3.38;;
16029;SDS011;34770;49.272;11.070;2023-06-01T00:09:16;6.13;;;2.97;;
16029;SDS011;34770;49.272;11.070;2023-06-01T00:11:42;3.85;;;3.35;;
16029;SDS011;34770;49.272;11.070;2023-06-01T00:14:07;5.45;;;3.40;;
16029;SDS011;34770;49.272;11.070;2023-06-01T00:16:33;5.07;;;3.47;;
16029;SDS011;34770;49.272;11.070;2023-06-01T00:18:58;6.13;;;3.55;;
16029;SDS011;34770;49.272;11.070;2023-06-01T00:21:26;3.00;;;2.78;;
16029;SDS011;34770;49.272;11.070;2023-06-01T00:23:53;3.95;;;3.20;;
16029;SDS011;34770;49.272;11.070;2023-06-01T00:26:19;5.45;;;3.88;;
16029;SDS011;34770;49.272;11.070;2023-06-01T00:28:44;4.50;;;3.30;;
16029;SDS011;34770;49.272;11.070;2023-06-01T00:31:10;4.50;;;3.60;;
16029;SDS011;34770;49.272;11.070;2023-06-01T00:33:35;7.07;;;4.13;;
16029;SDS011;34770;49.272;11.070;2023-06-01T00:36:01;5.10;;;3.60;;
16029;SDS011;34770;49.272;11.070;2023-06-01T00:38:27;7.60;;;4.50;;
16029;SDS011;34770;49.272;11.070;2023-06-01T00:40:52;7.97;;;3.80;;
16029;SDS011;34770;49.272;11.070;2023-06-01T00:43:18;10.02;;;3.38;;
16029;SDS011;34770;49.272;11.070;2023-06-01T00:45:44;8.57;;;4.60;;
16029;SDS011;34770;49.272;11.070;2023-06-01T00:48:13;4.70;;;4.00;;
16029;SDS011;34770;49.272;11.070;2023-06-01T00:50:40;7.03;;;4.60;;
16029;SDS011;34770;49.272;11.070;2023-06-01T00:53:07;6.18;;;4.00;;
16029;SDS011;34770;49.272;11.070;2023-06-01T00:55:36;5.07;;;4.32;;
16029;SDS011;34770;49.272;11.070;2023-06-01T00:58:01;8.15;;;4.47;;
16029;SDS011;34770;49.272;11.070;2023-06-01T01:00:28;7.22;;;3.97;;
16029;SDS011;34770;49.272;11.070;2023-06-01T01:02:54;6.75;;;4.03;;
16029;SDS011;34770;49.272;11.070;2023-06-01T01:05:22;7.72;;;4.43;;
16029;SDS011;34770;49.272;11.070;2023-06-01T01:07:55;6.03;;;3.88;;
16029;SDS011;34770;49.272;11.070;2023-06-01T01:13:27;4.57;;;3.83;;
16029;SDS011;34770;49.272;11.070;2023-06-01T01:18:42;5.95;;;4.22;;
16029;SDS011;34770;49.272;11.070;2023-06-01T01:21:19;5.60;;;4.65;;
16029;SDS011;34770;49.272;11.070;2023-06-01T01:29:34;5.65;;;4.18;;
16029;SDS011;34770;49.272;11.070;2023-06-01T01:32:03;7.13;;;4.80;;
16029;SDS011;34770;49.272;11.070;2023-06-01T01:34:30;5.45;;;4.03;;
16029;SDS011;34770;49.272;11.070;2023-06-01T01:36:56;7.18;;;4.85;;
16029;SDS011;34770;49.272;11.070;2023-06-01T01:39:22;5.90;;;4.75;;
16029;SDS011;34770;49.272;11.070;2023-06-01T01:41:47;7.82;;;4.53;;
16029;SDS011;34770;49.272;11.070;2023-06-01T01:44:13;5.68;;;4.43;;
16029;SDS011;34770;49.272;11.070;2023-06-01T01:51:56;7.38;;;4.30;;
16029;SDS011;34770;49.272;11.070;2023-06-01T01:54:31;5.35;;;4.70;;
16029;SDS011;34770;49.272;11.070;2023-06-01T01:57:01;5.25;;;4.15;;
16029;SDS011;34770;49.272;11.070;2023-06-01T01:59:28;5.25;;;4.38;;
16029;SDS011;34770;49.272;11.070;2023-06-01T02:01:55;5.47;;;4.60;;
16029;SDS011;34770;49.272;11.070;2023-06-01T02:04:21;7.05;;;4.50;;
16029;SDS011;34770;49.272;11.070;2023-06-01T02:06:46;5.20;;;4.45;;
16029;SDS011;34770;49.272;11.070;2023-06-01T02:09:12;6.18;;;4.28;;
16029;SDS011;34770;49.272;11.070;2023-06-01T02:11:37;5.28;;;4.45;;
16029;SDS011;34770;49.272;11.070;2023-06-01T02:14:03;4.85;;;4.35;;
16029;SDS011;34770;49.272;11.070;2023-06-01T02:16:29;7.22;;;4.28;;
16029;SDS011;34770;49.272;11.070;2023-06-01T02:18:55;5.72;;;4.38;;
16029;SDS011;34770;49.272;11.070;2023-06-01T02:21:23;5.93;;;4.60;;
16029;SDS011;34770;49.272;11.070;2023-06-01T02:23:49;7.15;;;5.38;;
16029;SDS011;34770;49.272;11.070;2023-06-01T02:26:14;9.13;;;4.90;;
16029;SDS011;34770;49.272;11.070;2023-06-01T02:28:41;7.63;;;4.80;;
16029;SDS011;34770;49.272;11.070;2023-06-01T02:31:07;9.90;;;5.15;;
16029;SDS011;34770;49.272;11.070;2023-06-01T02:33:34;7.72;;;5.57;;
16029;SDS011;34770;49.272;11.070;2023-06-01T02:35:59;8.85;;;5.07;;
16029;SDS011;34770;49.272;11.070;2023-06-01T02:38:25;6.78;;;5.50;;
16029;SDS011;34770;49.272;11.070;2023-06-01T02:40:51;7.78;;;5.68;;
16029;SDS011;34770;49.272;11.070;2023-06-01T02:43:17;8.02;;;5.65;;
16029;SDS011;34770;49.272;11.070;2023-06-01T02:45:42;6.40;;;5.40;;
16029;SDS011;34770;49.272;11.070;2023-06-01T02:48:07;6.55;;;5.13;;
16029;SDS011;34770;49.272;11.070;2023-06-01T02:50:33;8.80;;;5.57;;
16029;SDS011;34770;49.272;11.070;2023-06-01T02:52:58;7.53;;;5.22;;
16029;SDS011;34770;49.272;11.070;2023-06-01T02:55:24;8.35;;;5.80;;
16029;SDS011;34770;49.272;11.070;2023-06-01T02:57:50;8.38;;;5.28;;
16029;SDS011;34770;49.272;11.070;2023-06-01T03:00:15;7.13;;;5.28;;
16029;SDS011;34770;49.272;11.070;2023-06-01T03:02:44;6.13;;;5.07;;
16029;SDS011;34770;49.272;11.070;2023-06-01T03:05:10;5.70;;;4.53;;
16029;SDS011;34770;49.272;11.070;2023-06-01T03:07:46;7.15;;;5.10;;
16029;SDS011;34770;49.272;11.070;2023-06-01T03:10:12;5.90;;;5.10;;
16029;SDS011;34770;49.272;11.070;2023-06-01T03:12:38;6.68;;;5.13;;
16029;SDS011;34770;49.272;11.070;2023-06-01T03:15:04;8.98;;;5.90;;
16029;SDS011;34770;49.272;11.070;2023-06-01T03:17:30;11.73;;;6.65;;
16029;SDS011;34770;49.272;11.070;2023-06-01T03:19:57;8.13;;;5.10;;
16029;SDS011;34770;49.272;11.070;2023-06-01T03:22:23;6.05;;;5.45;;
16029;SDS011;34770;49.272;11.070;2023-06-01T03:24:48;6.35;;;5.00;;
16029;SDS011;34770;49.272;11.070;2023-06-01T03:27:18;6.20;;;5.32;;
16029;SDS011;34770;49.272;11.070;2023-06-01T03:29:44;7.30;;;5.53;;
16029;SDS011;34770;49.272;11.070;2023-06-01T03:32:10;8.45;;;5.90;;
16029;SDS011;34770;49.272;11.070;2023-06-01T03:34:36;9.93;;;5.35;;
16029;SDS011;34770;49.272;11.070;2023-06-01T03:37:02;6.57;;;5.20;;
16029;SDS011;34770;49.272;11.070;2023-06-01T03:39:29;8.80;;;5.85;;
16029;SDS011;34770;49.272;11.070;2023-06-01T03:41:58;7.10;;;5.50;;
16029;SDS011;34770;49.272;11.070;2023-06-01T03:44:24;6.72;;;5.90;;
16029;SDS011;34770;49.272;11.070;2023-06-01T03:46:50;6.57;;;5.43;;
16029;SDS011;34770;49.272;11.070;2023-06-01T03:49:15;6.88;;;5.57;;
16029;SDS011;34770;49.272;11.070;2023-06-01T03:51:41;6.13;;;5.55;;
16029;SDS011;34770;49.272;11.070;2023-06-01T03:54:06;9.63;;;5.78;;
16029;SDS011;34770;49.272;11.070;2023-06-01T03:56:32;6.18;;;5.15;;
16029;SDS011;34770;49.272;11.070;2023-06-01T03:58:57;8.57;;;5.88;;
16029;SDS011;34770;49.272;11.070;2023-06-01T04:01:24;7.38;;;5.93;;
16029;SDS011;34770;49.272;11.070;2023-06-01T04:03:54;8.45;;;6.15;;
16029;SDS011;34770;49.272;11.070;2023-06-01T04:06:21;7.20;;;5.85;;
16029;SDS011;34770;49.272;11.070;2023-06-01T04:08:49;7.53;;;5.80;;
16029;SDS011;34770;49.272;11.070;2023-06-01T04:11:20;7.45;;;5.82;;
16029;SDS011;34770;49.272;11.070;2023-06-01T04:13:47;6.97;;;5.80;;
16029;SDS011;34770;49.272;11.070;2023-06-01T04:16:13;8.35;;;6.10;;
16029;SDS011;34770;49.272;11.070;2023-06-01T04:18:38;8.27;;;6.10;;
16029;SDS011;34770;49.272;11.070;2023-06-01T04:21:04;8.57;;;6.07;;
16029;SDS011;34770;49.272;11.070;2023-06-01T04:23:31;7.65;;;5.47;;
16029;SDS011;34770;49.272;11.070;2023-06-01T04:25:57;5.25;;;4.75;;
16029;SDS011;34770;49.272;11.070;2023-06-01T04:28:24;8.57;;;5.40;;
16029;SDS011;34770;49.272;11.070;2023-06-01T04:30:52;6.35;;;4.95;;
16029;SDS011;34770;49.272;11.070;2023-06-01T04:33:19;10.18;;;5.40;;
16029;SDS011;34770;49.272;11.070;2023-06-01T04:35:45;9.48;;;6.07;;
16029;SDS011;34770;49.272;11.070;2023-06-01T04:38:10;8.63;;;6.20;;
16029;SDS011;34770;49.272;11.070;2023-06-01T04:40:36;6.57;;;5.93;;
16029;SDS011;34770;49.272;11.070;2023-06-01T04:43:02;5.97;;;5.35;;
16029;SDS011;34770;49.272;11.070;2023-06-01T04:45:28;6.55;;;5.00;;
16029;SDS011;34770;49.272;11.070;2023-06-01T04:47:58;10.07;;;5.25;;
16029;SDS011;34770;49.272;11.070;2023-06-01T04:50:24;8.52;;;6.03;;
16029;SDS011;34770;49.272;11.070;2023-06-01T04:52:54;9.10;;;5.35;;
16029;SDS011;34770;49.272;11.070;2023-06-01T04:55:20;9.13;;;5.25;;
16029;SDS011;34770;49.272;11.070;2023-06-01T04:57:45;6.85;;;5.20;;
16029;SDS011;34770;49.272;11.070;2023-06-01T05:00:13;6.22;;;5.38;;
16029;SDS011;34770;49.272;11.070;2023-06-01T05:02:42;9.38;;;4.90;;
16029;SDS011;34770;49.272;11.070;2023-06-01T05:05:09;7.53;;;5.22;;
16029;SDS011;34770;49.272;11.070;2023-06-01T05:07:36;6.50;;;5.75;;
16029;SDS011;34770;49.272;11.070;2023-06-01T05:10:02;6.43;;;5.10;;
16029;SDS011;34770;49.272;11.070;2023-06-01T05:12:32;6.68;;;5.30;;
16029;SDS011;34770;49.272;11.070;2023-06-01T05:14:58;7.65;;;5.50;;
16029;SDS011;34770;49.272;11.070;2023-06-01T05:17:25;8.00;;;5.20;;
16029;SDS011;34770;49.272;11.070;2023-06-01T05:19:50;11.38;;;4.85;;
16029;SDS011;34770;49.272;11.070;2023-06-01T05:22:16;7.07;;;5.25;;
16029;SDS011;34770;49.272;11.070;2023-06-01T05:24:41;8.23;;;5.05;;
16029;SDS011;34770;49.272;11.070;2023-06-01T05:27:07;7.65;;;5.10;;
16029;SDS011;34770;49.272;11.070;2023-06-01T05:29:33;6.55;;;4.68;;
16029;SDS011;34770;49.272;11.070;2023-06-01T05:31:58;6.43;;;4.60;;
16029;SDS011;34770;49.272;11.070;2023-06-01T05:34:23;6.88;;;5.32;;
16029;SDS011;34770;49.272;11.070;2023-06-01T05:36:49;7.35;;;4.63;;
16029;SDS011;34770;49.272;11.070;2023-06-01T05:39:15;6.85;;;3.92;;
16029;SDS011;34770;49.272;11.070;2023-06-01T05:41:41;5.15;;;3.95;;
16029;SDS011;34770;49.272;11.070;2023-06-01T05:44:06;6.00;;;4.18;;
16029;SDS011;34770;49.272;11.070;2023-06-01T05:46:32;5.60;;;4.43;;
16029;SDS011;34770;49.272;11.070;2023-06-01T05:48:58;8.73;;;4.20;;
16029;SDS011;34770;49.272;11.070;2023-06-01T05:51:23;6.18;;;4.47;;
16029;SDS011;34770;49.272;11.070;2023-06-01T05:53:49;7.20;;;4.28;;
16029;SDS011;34770;49.272;11.070;2023-06-01T05:56:15;6.20;;;4.55;;
16029;SDS011;34770;49.272;11.070;2023-06-01T05:58:41;7.10;;;3.90;;
16029;SDS011;34770;49.272;11.070;2023-06-01T06:01:07;5.95;;;4.15;;
16029;SDS011;34770;49.272;11.070;2023-06-01T06:03:34;6.55;;;3.80;;
16029;SDS011;34770;49.272;11.070;2023-06-01T06:06:00;4.88;;;3.70;;
16029;SDS011;34770;49.272;11.070;2023-06-01T06:08:26;9.73;;;3.78;;
16029;SDS011;34770;49.272;11.070;2023-06-01T06:10:52;4.85;;;3.60;;
16029;SDS011;34770;49.272;11.070;2023-06-01T06:13:17;7.13;;;3.50;;
16029;SDS011;34770;49.272;11.070;2023-06-01T06:15:43;7.57;;;4.43;;
16029;SDS011;34770;49.272;11.070;2023-06-01T06:18:08;7.38;;;3.88;;
16029;SDS011;34770;49.272;11.070;2023-06-01T06:20:34;5.88;;;3.50;;
16029;SDS011;34770;49.272;11.070;2023-06-01T06:23:00;9.38;;;4.07;;
16029;SDS011;34770;49.272;11.070;2023-06-01T06:25:26;7.88;;;4.35;;
16029;SDS011;34770;49.272;11.070;2023-06-01T06:27:51;5.97;;;3.80;;
16029;SDS011;34770;49.272;11.070;2023-06-01T06:30:17;6.75;;;4.63;;
16029;SDS011;34770;49.272;11.070;2023-06-01T06:32:42;3.70;;;3.13;;
16029;SDS011;34770;49.272;11.070;2023-06-01T06:35:08;5.80;;;3.20;;
16029;SDS011;34770;49.272;11.070;2023-06-01T06:37:37;3.50;;;3.00;;
16029;SDS011;34770;49.272;11.070;2023-06-01T06:40:03;3.20;;;2.75;;
16029;SDS011;34770;49.272;11.070;2023-06-01T06:42:30;4.72;;;3.05;;
16029;SDS011;34770;49.272;11.070;2023-06-01T06:44:55;7.55;;;3.42;;
16029;SDS011;34770;49.272;11.070;2023-06-01T06:47:22;3.00;;;2.65;;
16029;SDS011;34770;49.272;11.070;2023-06-01T06:49:49;3.67;;;2.70;;
16029;SDS011;34770;49.272;11.070;2023-06-01T06:52:15;4.30;;;2.60;;
16029;SDS011;34770;49.272;11.070;2023-06-01T06:54:40;9.40;;;2.92;;
16029;SDS011;34770;49.272;11.070;2023-06-01T06:57:06;7.50;;;3.45;;
16029;SDS011;34770;49.272;11.070;2023-06-01T06:59:32;7.80;;;2.50;;
16029;SDS011;34770;49.272;11.070;2023-06-01T07:01:58;4.75;;;2.55;;
16029;SDS011;34770;49.272;11.070;2023-06-01T07:04:23;5.38;;;2.50;;
16029;SDS011;34770;49.272;11.070;2023-06-01T07:06:49;4.13;;;2.55;;
16029;SDS011;34770;49.272;11.070;2023-06-01T07:09:15;3.75;;;2.33;;
16029;SDS011;34770;49.272;11.070;2023-06-01T07:11:41;5.97;;;2.55;;
16029;SDS011;34770;49.272;11.070;2023-06-01T07:14:10;7.78;;;2.65;;
16029;SDS011;34770;49.272;11.070;2023-06-01T07:16:36;4.40;;;2.72;;
16029;SDS011;34770;49.272;11.070;2023-06-01T07:19:01;3.95;;;2.58;;
16029;SDS011;34770;49.272;11.070;2023-06-01T07:21:27;4.80;;;2.47;;
16029;SDS011;34770;49.272;11.070;2023-06-01T07:23:53;5.38;;;2.60;;
16029;SDS011;34770;49.272;11.070;2023-06-01T07:26:19;4.40;;;2.75;;
16029;SDS011;34770;49.272;11.070;2023-06-01T07:28:44;5.80;;;2.85;;
16029;SDS011;34770;49.272;11.070;2023-06-01T07:31:10;5.38;;;2.17;;
16029;SDS011;34770;49.272;11.070;2023-06-01T07:33:35;5.90;;;3.00;;
16029;SDS011;34770;49.272;11.070;2023-06-01T07:36:02;5.95;;;2.42;;
16029;SDS011;34770;49.272;11.070;2023-06-01T07:38:28;5.80;;;2.47;;
16029;SDS011;34770;49.272;11.070;2023-06-01T07:40:55;5.00;;;2.35;;
16029;SDS011;34770;49.272;11.070;2023-06-01T07:43:20;4.88;;;2.35;;
16029;SDS011;34770;49.272;11.070;2023-06-01T07:45:46;5.55;;;2.40;;
16029;SDS011;34770;49.272;11.070;2023-06-01T07:48:11;4.93;;;2.35;;
16029;SDS011;34770;49.272;11.070;2023-06-01T07:50:36;6.72;;;2.72;;
16029;SDS011;34770;49.272;11.070;2023-06-01T07:53:02;4.47;;;2.70;;
16029;SDS011;34770;49.272;11.070;2023-06-01T07:55:28;4.93;;;2.22;;
16029;SDS011;34770;49.272;11.070;2023-06-01T07:57:54;5.03;;;2.10;;
16029;SDS011;34770;49.272;11.070;2023-06-01T08:00:19;6.15;;;2.13;;
16029;SDS011;34770;49.272;11.070;2023-06-01T08:02:45;3.25;;;2.10;;
16029;SDS011;34770;49.272;11.070;2023-06-01T08:05:10;3.53;;;2.10;;
16029;SDS011;34770;49.272;11.070;2023-06-01T08:07:37;4.20;;;2.45;;
16029;SDS011;34770;49.272;11.070;2023-06-01T08:10:04;5.15;;;2.38;;
16029;SDS011;34770;49.272;11.070;2023-06-01T08:12:31;3.58;;;1.90;;
16029;SDS011;34770;49.272;11.070;2023-06-01T08:14:57;6.78;;;2.70;;
16029;SDS011;34770;49.272;11.070;2023-06-01T08:17:23;3.83;;;2.38;;
16029;SDS011;34770;49.272;11.070;2023-06-01T08:19:49;3.40;;;2.00;;
16029;SDS011;34770;49.272;11.070;2023-06-01T08:22:19;3.45;;;1.88;;
16029;SDS011;34770;49.272;11.070;2023-06-01T08:24:46;4.93;;;2.75;;
16029;SDS011;34770;49.272;11.070;2023-06-01T08:27:19;3.35;;;2.00;;
16029;SDS011;34770;49.272;11.070;2023-06-01T08:29:47;5.35;;;2.08;;
16029;SDS011;34770;49.272;11.070;2023-06-01T08:32:13;3.13;;;2.15;;
16029;SDS011;34770;49.272;11.070;2023-06-01T08:34:39;3.92;;;1.90;;
16029;SDS011;34770;49.272;11.070;2023-06-01T08:37:05;4.95;;;2.08;;
16029;SDS011;34770;49.272;11.070;2023-06-01T08:39:31;4.18;;;1.95;;
16029;SDS011;34770;49.272;11.070;2023-06-01T08:42:11;3.30;;;2.40;;
16029;SDS011;34770;49.272;11.070;2023-06-01T08:44:41;4.05;;;1.73;;
16029;SDS011;34770;49.272;11.070;2023-06-01T08:47:07;3.58;;;2.22;;
16029;SDS011;34770;49.272;11.070;2023-06-01T08:49:34;3.97;;;1.83;;
16029;SDS011;34770;49.272;11.070;2023-06-01T08:52:04;3.53;;;1.80;;
16029;SDS011;34770;49.272;11.070;2023-06-01T08:54:33;4.43;;;2.30;;
16029;SDS011;34770;49.272;11.070;2023-06-01T08:56:59;4.35;;;2.00;;
16029;SDS011;34770;49.272;11.070;2023-06-01T08:59:27;3.60;;;2.28;;
16029;SDS011;34770;49.272;11.070;2023-06-01T09:01:54;3.47;;;2.15;;
16029;SDS011;34770;49.272;11.070;2023-06-01T09:04:21;4.47;;;2.45;;
16029;SDS011;34770;49.272;11.070;2023-06-01T09:06:47;2.17;;;1.90;;
16029;SDS011;34770;49.272;11.070;2023-06-01T09:09:13;2.60;;;1.90;;
16029;SDS011;34770;49.272;11.070;2023-06-01T09:11:39;6.80;;;2.17;;
16029;SDS011;34770;49.272;11.070;2023-06-01T09:16:59;4.72;;;2.22;;
16029;SDS011;34770;49.272;11.070;2023-06-01T09:19:25;6.30;;;2.15;;
16029;SDS011;34770;49.272;11.070;2023-06-01T09:22:09;13.20;;;2.90;;
16029;SDS011;34770;49.272;11.070;2023-06-01T09:24:35;4.88;;;2.40;;
16029;SDS011;34770;49.272;11.070;2023-06-01T09:27:01;6.60;;;1.90;;
16029;SDS011;34770;49.272;11.070;2023-06-01T09:29:26;2.58;;;2.00;;
16029;SDS011;34770;49.272;11.070;2023-06-01T09:31:52;2.15;;;1.83;;
16029;SDS011;34770;49.272;11.070;2023-06-01T09:34:18;2.33;;;2.05;;
16029;SDS011;34770;49.272;11.070;2023-06-01T09:36:54;7.53;;;2.55;;
16029;SDS011;34770;49.272;11.070;2023-06-01T09:39:21;5.10;;;2.35;;
16029;SDS011;34770;49.272;11.070;2023-06-01T09:41:49;2.50;;;1.67;;
16029;SDS011;34770;49.272;11.070;2023-06-01T09:46:53;5.55;;;2.63;;
16029;SDS011;34770;49.272;11.070;2023-06-01T09:51:49;2.17;;;1.98;;
16029;SDS011;34770;49.272;11.070;2023-06-01T09:54:22;2.30;;;1.70;;
16029;SDS011;34770;49.272;11.070;2023-06-01T09:56:49;5.07;;;2.45;;
16029;SDS011;34770;49.272;11.070;2023-06-01T09:59:15;4.05;;;2.03;;
16029;SDS011;34770;49.272;11.070;2023-06-01T10:01:40;2.50;;;1.75;;
16029;SDS011;34770;49.272;11.070;2023-06-01T10:04:08;4.93;;;1.80;;
16029;SDS011;34770;49.272;11.070;2023-06-01T10:06:38;4.40;;;1.88;;
16029;SDS011;34770;49.272;11.070;2023-06-01T10:09:06;3.30;;;1.60;;
16029;SDS011;34770;49.272;11.070;2023-06-01T10:11:41;1.98;;;1.77;;
16029;SDS011;34770;49.272;11.070;2023-06-01T10:14:06;2.42;;;1.65;;
16029;SDS011;34770;49.272;11.070;2023-06-01T10:16:34;3.60;;;1.80;;
16029;SDS011;34770;49.272;11.070;2023-06-01T10:19:00;4.90;;;2.10;;
16029;SDS011;34770;49.272;11.070;2023-06-01T10:21:27;2.63;;;1.90;;
16029;SDS011;34770;49.272;11.070;2023-06-01T10:23:54;3.13;;;1.50;;
16029;SDS011;34770;49.272;11.070;2023-06-01T10:26:20;4.03;;;1.80;;
16029;SDS011;34770;49.272;11.070;2023-06-01T10:28:46;2.72;;;1.95;;
16029;SDS011;34770;49.272;11.070;2023-06-01T10:34:07;5.07;;;2.38;;
16029;SDS011;34770;49.272;11.070;2023-06-01T10:37:16;3.47;;;1.90;;
16029;SDS011;34770;49.272;11.070;2023-06-01T10:42:43;3.72;;;2.05;;
16029;SDS011;34770;49.272;11.070;2023-06-01T10:44:44;4.35;;;1.88;;
16029;SDS011;34770;49.272;11.070;2023-06-01T10:57:30;3.67;;;2.10;;
16029;SDS011;34770;49.272;11.070;2023-06-01T11:00:15;2.10;;;1.60;;
16029;SDS011;34770;49.272;11.070;2023-06-01T11:02:57;3.13;;;1.83;;
16029;SDS011;34770;49.272;11.070;2023-06-01T11:13:29;3.22;;;2.25;;
16029;SDS011;34770;49.272;11.070;2023-06-01T11:18:52;2.92;;;1.65;;
16029;SDS011;34770;49.272;11.070;2023-06-01T11:21:28;2.22;;;1.35;;
16029;SDS011;34770;49.272;11.070;2023-06-01T11:24:11;5.28;;;1.60;;
16029;SDS011;34770;49.272;11.070;2023-06-01T11:26:39;3.13;;;2.08;;
16029;SDS011;34770;49.272;11.070;2023-06-01T11:31:35;2.33;;;1.63;;
16029;SDS011;34770;49.272;11.070;2023-06-01T11:34:03;4.47;;;1.63;;
16029;SDS011;34770;49.272;11.070;2023-06-01T11:36:29;3.85;;;1.52;;
16029;SDS011;34770;49.272;11.070;2023-06-01T11:38:55;2.10;;;1.35;;
16029;SDS011;34770;49.272;11.070;2023-06-01T11:41:21;2.42;;;2.08;;
16029;SDS011;34770;49.272;11.070;2023-06-01T11:43:57;3.25;;;1.73;;
16029;SDS011;34770;49.272;11.070;2023-06-01T11:46:23;2.17;;;1.13;;
16029;SDS011;34770;49.272;11.070;2023-06-01T11:49:05;4.03;;;2.28;;
16029;SDS011;34770;49.272;11.070;2023-06-01T11:51:31;2.72;;;1.45;;
16029;SDS011;34770;49.272;11.070;2023-06-01T11:54:02;2.10;;;1.52;;
16029;SDS011;34770;49.272;11.070;2023-06-01T11:56:32;1.75;;;1.52;;
16029;SDS011;34770;49.272;11.070;2023-06-01T11:59:03;2.88;;;1.45;;
16029;SDS011;34770;49.272;11.070;2023-06-01T12:01:36;4.53;;;1.60;;
16029;SDS011;34770;49.272;11.070;2023-06-01T12:04:11;2.72;;;1.80;;
16029;SDS011;34770;49.272;11.070;2023-06-01T12:06:40;4.95;;;1.70;;
16029;SDS011;34770;49.272;11.070;2023-06-01T12:09:06;5.20;;;1.65;;
16029;SDS011;34770;49.272;11.070;2023-06-01T12:11:33;2.67;;;1.48;;
16029;SDS011;34770;49.272;11.070;2023-06-01T12:13:59;7.63;;;1.85;;
16029;SDS011;34770;49.272;11.070;2023-06-01T12:16:50;2.40;;;1.65;;
16029;SDS011;34770;49.272;11.070;2023-06-01T12:19:19;2.60;;;1.90;;
16029;SDS011;34770;49.272;11.070;2023-06-01T12:21:52;2.72;;;1.67;;
16029;SDS011;34770;49.272;11.070;2023-06-01T12:24:31;3.20;;;1.80;;
16029;SDS011;34770;49.272;11.070;2023-06-01T12:26:58;2.25;;;1.58;;
16029;SDS011;34770;49.272;11.070;2023-06-01T12:29:37;4.38;;;1.83;;
16029;SDS011;34770;49.272;11.070;2023-06-01T12:32:09;2.20;;;1.90;;
16029;SDS011;34770;49.272;11.070;2023-06-01T12:34:36;3.67;;;1.50;;
16029;SDS011;34770;49.272;11.070;2023-06-01T12:37:12;2.90;;;1.90;;
16029;SDS011;34770;49.272;11.070;2023-06-01T12:39:54;2.45;;;1.70;;
16029;SDS011;34770;49.272;11.070;2023-06-01T12:42:37;3.03;;;1.90;;
16029;SDS011;34770;49.272;11.070;2023-06-01T12:45:07;2.65;;;1.35;;
16029;SDS011;34770;49.272;11.070;2023-06-01T12:47:37;2.97;;;1.80;;
16029;SDS011;34770;49.272;11.070;2023-06-01T12:50:07;2.28;;;1.70;;
16029;SDS011;34770;49.272;11.070;2023-06-01T12:52:34;3.67;;;1.95;;
16029;SDS011;34770;49.272;11.070;2023-06-01T12:55:00;4.10;;;2.35;;
16029;SDS011;34770;49.272;11.070;2023-06-01T12:57:28;3.30;;;1.70;;
16029;SDS011;34770;49.272;11.070;2023-06-01T12:59:55;2.70;;;1.63;;
16029;SDS011;34770;49.272;11.070;2023-06-01T13:02:21;2.50;;;1.67;;
16029;SDS011;34770;49.272;11.070;2023-06-01T13:04:48;5.40;;;1.80;;
16029;SDS011;34770;49.272;11.070;2023-06-01T13:07:14;3.13;;;1.65;;
16029;SDS011;34770;49.272;11.070;2023-06-01T13:09:42;5.40;;;1.92;;
16029;SDS011;34770;49.272;11.070;2023-06-01T13:12:08;5.03;;;2.03;;
16029;SDS011;34770;49.272;11.070;2023-06-01T13:14:34;3.22;;;1.75;;
16029;SDS011;34770;49.272;11.070;2023-06-01T13:17:00;3.10;;;1.77;;
16029;SDS011;34770;49.272;11.070;2023-06-01T13:19:25;3.13;;;1.50;;
16029;SDS011;34770;49.272;11.070;2023-06-01T13:21:51;4.80;;;1.80;;
16029;SDS011;34770;49.272;11.070;2023-06-01T13:24:17;3.33;;;1.77;;
16029;SDS011;34770;49.272;11.070;2023-06-01T13:26:43;3.22;;;1.75;;
16029;SDS011;34770;49.272;11.070;2023-06-01T13:29:09;3.63;;;1.88;;
16029;SDS011;34770;49.272;11.070;2023-06-01T13:31:35;4.57;;;1.55;;
16029;SDS011;34770;49.272;11.070;2023-06-01T13:34:02;1.75;;;1.60;;
16029;SDS011;34770;49.272;11.070;2023-06-01T13:36:28;4.45;;;1.88;;
16029;SDS011;34770;49.272;11.070;2023-06-01T13:38:54;3.08;;;1.95;;
16029;SDS011;34770;49.272;11.070;2023-06-01T13:41:20;3.30;;;1.75;;
16029;SDS011;34770;49.272;11.070;2023-06-01T13:43:46;5.05;;;2.00;;
16029;SDS011;34770;49.272;11.070;2023-06-01T13:46:12;6.10;;;1.70;;
16029;SDS011;34770;49.272;11.070;2023-06-01T13:48:38;5.15;;;1.60;;
16029;SDS011;34770;49.272;11.070;2023-06-01T13:51:04;4.72;;;1.77;;
16029;SDS011;34770;49.272;11.070;2023-06-01T13:53:31;4.50;;;2.33;;
16029;SDS011;34770;49.272;11.070;2023-06-01T13:55:56;3.15;;;1.77;;
16029;SDS011;34770;49.272;11.070;2023-06-01T13:58:22;2.15;;;1.80;;
16029;SDS011;34770;49.272;11.070;2023-06-01T14:00:47;4.88;;;1.83;;
16029;SDS011;34770;49.272;11.070;2023-06-01T14:03:13;2.17;;;1.73;;
16029;SDS011;34770;49.272;11.070;2023-06-01T14:05:38;3.17;;;1.90;;
16029;SDS011;34770;49.272;11.070;2023-06-01T14:08:04;4.07;;;1.88;;
16029;SDS011;34770;49.272;11.070;2023-06-01T14:10:33;4.13;;;2.05;;
16029;SDS011;34770;49.272;11.070;2023-06-01T14:12:59;3.72;;;2.15;;
16029;SDS011;34770;49.272;11.070;2023-06-01T14:15:25;4.43;;;1.92;;
16029;SDS011;34770;49.272;11.070;2023-06-01T14:17:51;5.82;;;1.98;;
16029;SDS011;34770;49.272;11.070;2023-06-01T14:20:17;2.92;;;1.90;;
16029;SDS011;34770;49.272;11.070;2023-06-01T14:22:43;4.20;;;1.98;;
16029;SDS011;34770;49.272;11.070;2023-06-01T14:25:08;2.58;;;1.70;;
16029;SDS011;34770;49.272;11.070;2023-06-01T14:27:34;2.85;;;1.85;;
16029;SDS011;34770;49.272;11.070;2023-06-01T14:30:02;2.40;;;1.70;;
16029;SDS011;34770;49.272;11.070;2023-06-01T14:32:29;4.43;;;1.70;;
16029;SDS011;34770;49.272;11.070;2023-06-01T14:34:55;2.00;;;1.70;;
16029;SDS011;34770;49.272;11.070;2023-06-01T14:37:20;3.08;;;1.85;;
16029;SDS011;34770;49.272;11.070;2023-06-01T14:39:46;2.28;;;1.83;;
16029;SDS011;34770;49.272;11.070;2023-06-01T14:42:11;5.50;;;2.00;;
16029;SDS011;34770;49.272;11.070;2023-06-01T14:44:37;4.03;;;1.90;;
16029;SDS011;34770;49.272;11.070;2023-06-01T14:47:03;2.25;;;1.58;;
16029;SDS011;34770;49.272;11.070;2023-06-01T14:49:28;4.25;;;1.95;;
16029;SDS011;34770;49.272;11.070;2023-06-01T14:51:54;3.38;;;2.28;;
16029;SDS011;34770;49.272;11.070;2023-06-01T14:54:20;5.72;;;2.03;;
16029;SDS011;34770;49.272;11.070;2023-06-01T14:56:45;3.10;;;1.60;;
16029;SDS011;34770;49.272;11.070;2023-06-01T14:59:11;6.18;;;1.75;;
16029;SDS011;34770;49.272;11.070;2023-06-01T15:01:36;3.95;;;2.08;;
16029;SDS011;34770;49.272;11.070;2023-06-01T15:04:01;5.22;;;1.80;;
16029;SDS011;34770;49.272;11.070;2023-06-01T15:06:27;2.75;;;1.80;;
16029;SDS011;34770;49.272;11.070;2023-06-01T15:08:52;2.80;;;1.58;;
16029;SDS011;34770;49.272;11.070;2023-06-01T15:11:18;1.75;;;1.52;;
16029;SDS011;34770;49.272;11.070;2023-06-01T15:13:44;3.60;;;1.67;;
16029;SDS011;34770;49.272;11.070;2023-06-01T15:16:10;2.42;;;1.80;;
16029;SDS011;34770;49.272;11.070;2023-06-01T15:18:35;3.42;;;1.50;;
16029;SDS011;34770;49.272;11.070;2023-06-01T15:21:01;4.82;;;1.92;;
16029;SDS011;34770;49.272;11.070;2023-06-01T15:23:27;3.97;;;2.17;;
16029;SDS011;34770;49.272;11.070;2023-06-01T15:25:53;3.03;;;1.90;;
16029;SDS011;34770;49.272;11.070;2023-06-01T15:28:18;5.07;;;1.85;;